Main page
METAR-TAF:

METAR-TAF

Airports :

Kuwait International Airport

Kuwait City, Kuwait

latitude: 29-13N, longitude: 047-59E, elevation: 55 m

Current weather observation

The report was made 51 minutes ago, at 22:00 UTC
Wind 9 kt from the Northwest
Temperature 38°C
Humidity 13%
Pressure 995 hPa
Visibility 10 km or more
no clouds below 1500 m and no cumulonimbus

METAR: OKBK 052200Z 32009KT CAVOK 38/05 Q0995 NOSIG

Time: 01:51 (22:51 UTC)

Forecast

The report was made 5 hours and 51 minutes ago, at 17:00 UTC
Forecast valid from 05 at 18 UTC to 06 at 24 UTC
Wind 10 kt from the North/Northwest with gusts up to 20 kt
Visibility: 7000 m

TAF: OKBK 051700Z 0518/0624 34010G20KT 7000 NSC

Weather observations and forecasts of more than 4000 airports (METAR and TAF reports).

The available stations are represented by yellow and red dots on the map.

Hover mouse over dot to see the name of the station.

Then click to see weather observations and forecasts.

To change the map : click on the green buttons with a black cross to zoom in, on the green button with a dash to zoom out, or on the green arrows for adjacent maps.


METAR-TAF: